Time;durP1;ratioP1;P1;durP2;ratioP2;P2;SDS_P1;SDS_P2;PMS_P1;PMS_P2;Temp;Humidity;BMP_temperature;BMP_pressure;BME280_temperature;BME280_humidity;BME280_pressure;Samples;Min_cycle;Max_cycle;Signal;HPM_P1;HPM_P2
2023/11/07 00:02:24;;;;;;;4.40;2.50;;;;;;;10.53;70.37;99147.22;78351;1298;3051502;-68
2023/11/07 00:04:51;;;;;;;5.40;2.60;;;;;;;10.29;70.87;99146.98;79808;1295;3013551;-67
2023/11/07 00:07:18;;;;;;;6.00;2.80;;;;;;;10.13;71.30;99151.01;79577;1298;3011675;-68
2023/11/07 00:09:46;;;;;;;5.20;2.50;;;;;;;9.94;71.79;99154.82;78437;1298;3025800;-68
2023/11/07 00:12:12;;;;;;;4.80;2.50;;;;;;;9.88;71.88;99159.91;79596;1302;3013091;-67
2023/11/07 00:14:38;;;;;;;5.20;3.20;;;;;;;9.72;72.43;99149.53;79626;1298;3011941;-66
2023/11/07 00:17:06;;;;;;;9.10;4.80;;;;;;;9.68;72.31;99153.64;78325;1298;3024887;-68
2023/11/07 00:19:32;;;;;;;9.50;6.00;;;;;;;9.61;72.38;99155.08;79704;1301;3018379;-67
2023/11/07 00:22:00;;;;;;;12.90;7.00;;;;;;;9.59;72.10;99153.63;79718;1296;3011670;-67
2023/11/07 00:24:27;;;;;;;10.70;7.30;;;;;;;9.54;72.20;99156.73;78322;1298;3028099;-68
2023/11/07 00:26:54;;;;;;;12.60;8.10;;;;;;;9.47;72.34;99154.02;79666;1302;3013017;-67
2023/11/07 00:29:22;;;;;;;13.70;7.70;;;;;;;9.55;71.95;99155.27;79515;1298;3011947;-67
2023/11/07 00:31:51;;;;;;;12.60;7.70;;;;;;;9.57;71.66;99157.79;78491;1302;3052774;-68
2023/11/07 00:34:18;;;;;;;12.80;8.10;;;;;;;9.56;71.35;99165.39;79486;1295;3011985;-68
2023/11/07 00:36:46;;;;;;;10.10;6.90;;;;;;;9.61;71.08;99165.25;79548;1298;3013218;-69
2023/11/07 00:39:15;;;;;;;12.60;7.60;;;;;;;9.59;70.91;99163.10;78503;1298;3050470;-67
2023/11/07 00:41:45;;;;;;;17.00;8.50;;;;;;;9.61;70.87;99167.85;79671;1299;3013364;-68
2023/11/07 00:44:13;;;;;;;10.90;7.00;;;;;;;9.59;71.14;99174.09;78422;1298;3048764;-68
2023/11/07 00:46:40;;;;;;;11.00;6.20;;;;;;;9.60;71.32;99181.02;79620;1299;3015078;-68
2023/11/07 00:49:06;;;;;;;9.10;4.30;;;;;;;9.52;71.77;99187.83;79392;1296;3016229;-67
2023/11/07 00:51:34;;;;;;;6.00;3.40;;;;;;;9.38;72.42;99177.09;78249;1301;3026664;-67
2023/11/07 00:54:00;;;;;;;5.10;3.00;;;;;;;9.32;72.55;99181.69;79694;1299;3013094;-68
2023/11/07 00:56:27;;;;;;;7.10;3.60;;;;;;;9.35;72.58;99184.27;79696;1298;3011719;-68
2023/11/07 00:58:54;;;;;;;5.10;2.10;;;;;;;9.37;72.95;99192.77;78383;1308;3027731;-69
2023/11/07 01:01:21;;;;;;;6.10;2.50;;;;;;;10.07;72.03;99193.02;79676;1299;3012716;-68
2023/11/07 01:03:47;;;;;;;7.00;2.80;;;;;;;10.43;70.43;99190.20;79566;1298;3013141;-69
2023/11/07 01:06:15;;;;;;;6.00;2.90;;;;;;;10.37;69.95;99183.81;78392;1295;3026386;-68
2023/11/07 01:08:43;;;;;;;6.80;3.60;;;;;;;10.07;70.49;99190.41;79664;1298;3011686;-67
2023/11/07 01:11:09;;;;;;;9.70;4.60;;;;;;;9.81;71.17;99195.83;79582;1297;3013109;-68
2023/11/07 01:13:38;;;;;;;11.40;6.40;;;;;;;9.67;71.35;99198.44;78484;1295;3028353;-67
2023/11/07 01:16:05;;;;;;;12.10;5.50;;;;;;;9.59;71.30;99204.54;79764;1298;3011483;-67
2023/11/07 01:18:31;;;;;;;12.50;5.70;;;;;;;9.60;71.41;99208.10;79574;1298;3011789;-68
2023/11/07 01:20:59;;;;;;;13.20;6.60;;;;;;;9.45;71.86;99210.41;78295;1295;3051338;-68
2023/11/07 01:23:26;;;;;;;14.20;6.30;;;;;;;9.28;72.50;99210.73;79680;1298;3019512;-69
2023/11/07 01:25:53;;;;;;;14.80;7.10;;;;;;;9.14;72.80;99212.06;79455;1296;3011618;-67
2023/11/07 01:28:21;;;;;;;16.20;7.70;;;;;;;9.13;72.44;99215.29;78442;1298;3050360;-67
2023/11/07 01:30:50;;;;;;;13.60;6.40;;;;;;;9.08;72.25;99218.05;79644;1298;3013714;-67
2023/11/07 01:33:20;;;;;;;15.90;6.10;;;;;;;9.23;71.58;99221.71;79181;1295;3011512;-68
2023/11/07 01:35:46;;;;;;;10.20;6.00;;;;;;;9.29;71.39;99223.61;79752;1298;3013081;-68
2023/11/07 01:38:12;;;;;;;16.40;6.40;;;;;;;9.25;71.60;99230.85;79578;1298;3013148;-67
2023/11/07 01:40:40;;;;;;;8.60;5.40;;;;;;;9.20;72.07;99239.02;78170;1301;3028263;-68
2023/11/07 01:43:13;;;;;;;8.10;4.60;;;;;;;9.22;72.12;99250.23;79652;1295;3013060;-66
2023/11/07 01:45:41;;;;;;;8.40;3.60;;;;;;;9.12;72.69;99254.30;78407;1298;3051980;-67
2023/11/07 01:48:08;;;;;;;5.40;2.50;;;;;;;8.99;73.93;99258.71;79669;1298;3012837;-67
2023/11/07 01:50:36;;;;;;;7.60;2.60;;;;;;;9.69;73.62;99262.89;79596;1298;3011906;-67
2023/11/07 01:53:04;;;;;;;6.90;2.30;;;;;;;10.08;71.89;99265.42;78417;1295;3056623;-68
2023/11/07 01:55:32;;;;;;;3.40;2.00;;;;;;;10.02;71.38;99267.48;79599;1294;3012932;-68
2023/11/07 01:58:00;;;;;;;4.30;2.30;;;;;;;9.80;71.81;99273.38;79417;1301;3013717;-70
2023/11/07 02:00:28;;;;;;;5.60;2.20;;;;;;;9.42;72.93;99267.95;78325;1301;3051187;-66
2023/11/07 02:02:58;;;;;;;4.30;2.10;;;;;;;9.24;73.54;99270.74;79470;1296;3013108;-67
2023/11/07 02:05:27;;;;;;;5.40;1.90;;;;;;;9.10;74.03;99271.54;78949;1301;3011544;-66
2023/11/07 02:07:53;;;;;;;4.20;2.10;;;;;;;8.93;74.74;99280.56;79536;1301;3013862;-66
2023/11/07 02:10:20;;;;;;;4.70;2.30;;;;;;;8.82;75.39;99281.55;79451;1300;3011809;-67
2023/11/07 02:12:47;;;;;;;6.50;2.10;;;;;;;8.75;76.12;99289.61;78221;1301;3027388;-67
2023/11/07 02:15:22;;;;;;;8.40;1.90;;;;;;;9.29;75.55;99287.55;79439;1298;3013605;-67
2023/11/07 02:17:50;;;;;;;7.00;2.30;;;;;;;9.63;74.38;99288.42;78250;1301;3051512;-66
2023/11/07 02:20:17;;;;;;;2.60;1.60;;;;;;;9.64;73.64;99293.25;79504;1296;3013925;-67
2023/11/07 02:22:48;;;;;;;4.70;1.90;;;;;;;9.41;74.08;99298.26;79506;1301;3011736;-67
2023/11/07 02:25:18;;;;;;;5.00;2.20;;;;;;;9.23;74.53;99299.95;78226;1301;3048654;-67
2023/11/07 02:27:45;;;;;;;5.30;2.20;;;;;;;9.00;75.41;99302.15;79454;1300;3011681;-67
2023/11/07 02:30:12;;;;;;;4.60;2.30;;;;;;;8.81;76.16;99305.52;79528;1296;3011604;-67
2023/11/07 02:32:41;;;;;;;4.50;1.90;;;;;;;8.69;76.73;99302.15;78232;1300;3053098;-66
2023/11/07 02:35:08;;;;;;;4.60;1.90;;;;;;;8.74;77.07;99307.14;79688;1295;3018397;-67
2023/11/07 02:37:35;;;;;;;4.20;1.60;;;;;;;9.22;76.36;99307.20;79406;1294;3011951;-67
2023/11/07 02:40:03;;;;;;;4.50;2.20;;;;;;;9.86;73.74;99313.81;78302;1295;3050422;-67
2023/11/07 02:42:30;;;;;;;5.40;1.90;;;;;;;9.71;72.99;99306.09;79599;1296;3013296;-67
2023/11/07 02:44:57;;;;;;;4.70;2.00;;;;;;;9.47;73.49;99314.20;79464;1295;3011748;-67
2023/11/07 02:47:25;;;;;;;2.90;1.40;;;;;;;9.37;73.73;99323.84;78358;1295;3052134;-68
2023/11/07 02:49:52;;;;;;;2.80;1.80;;;;;;;9.27;73.76;99319.89;79553;1295;3019135;-68
2023/11/07 02:52:19;;;;;;;4.20;2.10;;;;;;;9.13;74.10;99320.81;79663;1295;3011992;-67
2023/11/07 02:54:48;;;;;;;7.10;2.10;;;;;;;8.89;75.15;99321.64;78271;1300;3049873;-67
2023/11/07 02:57:15;;;;;;;5.50;2.40;;;;;;;8.71;75.77;99323.70;79472;1299;3013502;-69
2023/11/07 02:59:46;;;;;;;6.80;3.20;;;;;;;8.64;75.88;99326.34;79395;1300;3013249;-67
2023/11/07 03:02:17;;;;;;;7.00;3.20;;;;;;;8.72;76.16;99331.85;78259;1296;3051154;-66
2023/11/07 03:04:43;;;;;;;6.00;2.90;;;;;;;9.56;74.82;99331.80;79593;1295;3011613;-67
2023/11/07 03:07:12;;;;;;;7.00;3.00;;;;;;;9.93;72.75;99333.86;79075;1295;3013586;-67
2023/11/07 03:09:40;;;;;;;4.70;2.70;;;;;;;9.74;72.44;99333.22;79356;1296;3013139;-67
2023/11/07 03:12:10;;;;;;;5.90;2.80;;;;;;;9.47;73.28;99338.81;79517;1295;3012699;-67
2023/11/07 03:14:43;;;;;;;3.40;2.00;;;;;;;9.24;73.72;99340.48;78337;1300;3052105;-67
2023/11/07 03:17:09;;;;;;;4.70;1.90;;;;;;;9.12;74.23;99341.36;79438;1300;3011870;-66
2023/11/07 03:19:37;;;;;;;4.10;2.00;;;;;;;8.81;75.38;99343.92;78375;1299;3051396;-67
2023/11/07 03:22:04;;;;;;;6.20;2.10;;;;;;;8.60;76.18;99342.43;79587;1295;3013718;-66
2023/11/07 03:24:31;;;;;;;5.70;2.40;;;;;;;8.49;76.67;99347.42;79486;1295;3011761;-68
2023/11/07 03:26:58;;;;;;;3.80;1.80;;;;;;;8.65;77.35;99348.64;78208;1299;3027982;-70
2023/11/07 03:29:25;;;;;;;4.50;2.20;;;;;;;9.21;75.52;99354.29;79597;1297;3013599;-68
2023/11/07 03:31:53;;;;;;;4.30;2.40;;;;;;;9.16;75.29;99361.89;79554;1297;3011924;-68
2023/11/07 03:34:21;;;;;;;5.40;2.50;;;;;;;9.01;75.18;99364.98;78251;1300;3051729;-68
2023/11/07 03:36:48;;;;;;;4.60;2.50;;;;;;;9.02;74.78;99367.73;79466;1299;3013480;-68
2023/11/07 03:39:15;;;;;;;4.90;2.20;;;;;;;8.72;75.36;99375.31;79405;1295;3012032;-67
2023/11/07 03:41:46;;;;;;;5.90;2.20;;;;;;;8.53;76.21;99369.36;78572;1296;3048897;-67
2023/11/07 03:44:12;;;;;;;6.10;2.40;;;;;;;8.34;76.82;99368.23;79691;1295;3013522;-67
2023/11/07 03:46:39;;;;;;;6.00;2.70;;;;;;;8.25;77.21;99370.63;79691;1300;3013319;-67
2023/11/07 03:49:07;;;;;;;4.80;1.90;;;;;;;8.33;77.96;99370.71;78541;1295;3053671;-67
2023/11/07 03:51:34;;;;;;;5.10;2.20;;;;;;;9.19;76.15;99376.03;79482;1295;3019222;-67
2023/11/07 03:54:01;;;;;;;5.40;2.40;;;;;;;9.19;74.45;99376.06;79520;1296;3013183;-70
2023/11/07 03:56:28;;;;;;;3.60;2.10;;;;;;;9.04;74.86;99378.28;78246;1295;3026017;-70
2023/11/07 03:58:55;;;;;;;4.10;2.40;;;;;;;8.95;74.46;99376.89;79781;1295;3019477;-68
2023/11/07 04:01:21;;;;;;;5.30;2.20;;;;;;;8.71;75.16;99377.66;79676;1294;3011756;-69
2023/11/07 04:03:50;;;;;;;4.80;2.40;;;;;;;8.56;75.47;99390.18;78513;1298;3026782;-67
2023/11/07 04:06:17;;;;;;;6.40;2.70;;;;;;;8.48;75.54;99389.69;79580;1298;3013796;-67
2023/11/07 04:08:44;;;;;;;6.00;2.90;;;;;;;8.18;76.57;99387.91;79559;1298;3013209;-67
2023/11/07 04:11:12;;;;;;;5.20;2.40;;;;;;;8.12;76.87;99393.13;78272;1298;3048744;-67
2023/11/07 04:13:41;;;;;;;8.60;2.50;;;;;;;8.45;76.77;99402.75;79561;1298;3013211;-67
2023/11/07 04:16:10;;;;;;;7.50;3.00;;;;;;;9.05;74.64;99404.42;79016;1297;3013640;-68
2023/11/07 04:18:36;;;;;;;6.20;3.30;;;;;;;9.17;73.57;99405.85;79598;1298;3013045;-68
2023/11/07 04:21:04;;;;;;;7.20;3.30;;;;;;;8.78;74.61;99411.19;79628;1294;3011410;-67
2023/11/07 04:23:31;;;;;;;8.00;3.20;;;;;;;8.43;75.88;99417.02;78329;1297;3050260;-67
2023/11/07 04:25:58;;;;;;;6.80;3.30;;;;;;;8.38;75.72;99420.59;79588;1294;3013691;-68
2023/11/07 04:28:25;;;;;;;5.50;2.90;;;;;;;8.18;76.34;99428.20;79485;1295;3013649;-68
2023/11/07 04:30:53;;;;;;;5.60;3.30;;;;;;;7.97;77.20;99432.26;78435;1300;3048152;-68
2023/11/07 04:33:21;;;;;;;7.20;3.20;;;;;;;7.89;77.49;99430.01;79606;1295;3013228;-68
2023/11/07 04:35:47;;;;;;;4.80;2.00;;;;;;;7.85;78.02;99434.08;79554;1294;3013824;-68
2023/11/07 04:38:16;;;;;;;11.90;3.00;;;;;;;8.56;76.48;99437.81;78410;1295;3051745;-68
2023/11/07 04:40:43;;;;;;;5.00;2.50;;;;;;;8.93;74.49;99439.32;79554;1295;3015406;-68
2023/11/07 04:43:09;;;;;;;3.00;2.00;;;;;;;8.92;74.07;99442.70;79488;1296;3011681;-67
2023/11/07 04:45:37;;;;;;;6.50;2.30;;;;;;;8.81;73.74;99444.00;78425;1298;3049399;-67
2023/11/07 04:48:04;;;;;;;5.30;2.70;;;;;;;8.67;73.76;99447.90;79517;1298;3018431;-68
2023/11/07 04:50:32;;;;;;;6.10;2.70;;;;;;;8.50;73.98;99448.95;79589;1298;3011842;-68
2023/11/07 04:53:04;;;;;;;6.40;3.00;;;;;;;8.43;74.18;99446.16;78384;1294;3050324;-67
2023/11/07 04:55:34;;;;;;;4.40;2.60;;;;;;;8.19;74.83;99453.13;79596;1297;3011776;-67
2023/11/07 04:58:01;;;;;;;7.00;3.40;;;;;;;8.26;74.62;99451.02;78438;1298;3050040;-68
2023/11/07 05:00:28;;;;;;;19.70;3.60;;;;;;;8.30;73.99;99455.20;79562;1297;3013674;-66
2023/11/07 05:02:55;;;;;;;4.90;2.60;;;;;;;8.31;74.07;99467.02;79666;1298;3011847;-66
2023/11/07 05:05:23;;;;;;;3.10;1.30;;;;;;;8.23;74.81;99468.27;78533;1297;3025347;-66
2023/11/07 05:07:50;;;;;;;3.80;1.50;;;;;;;9.07;72.81;99474.21;79640;1295;3013107;-66
2023/11/07 05:10:17;;;;;;;6.10;1.90;;;;;;;9.24;71.58;99476.98;79529;1293;3011815;-66
2023/11/07 05:12:45;;;;;;;5.20;1.50;;;;;;;9.30;70.63;99478.90;78540;1299;3048183;-67
2023/11/07 05:15:11;;;;;;;7.90;2.10;;;;;;;9.39;70.05;99482.13;79643;1298;3013336;-67
2023/11/07 05:17:38;;;;;;;2.70;1.60;;;;;;;9.16;70.18;99486.30;79823;1298;3011565;-67
2023/11/07 05:20:10;;;;;;;4.30;1.70;;;;;;;9.00;70.40;99481.95;78509;1298;3027395;-67
2023/11/07 05:22:39;;;;;;;3.60;1.90;;;;;;;8.97;70.82;99495.55;79676;1300;3013656;-69
2023/11/07 05:25:07;;;;;;;4.40;2.50;;;;;;;8.85;71.10;99489.20;78354;1296;3050866;-67
2023/11/07 05:27:34;;;;;;;6.40;2.50;;;;;;;8.67;72.06;99492.91;79775;1294;3013323;-66
2023/11/07 05:30:00;;;;;;;5.10;3.00;;;;;;;8.52;72.85;99492.14;79844;1293;3011909;-67
2023/11/07 05:32:28;;;;;;;8.60;3.10;;;;;;;8.45;72.90;99492.48;78467;1298;3050124;-67
2023/11/07 05:34:55;;;;;;;3.50;2.10;;;;;;;8.33;73.83;99487.48;79728;1295;3019177;-66
2023/11/07 05:37:21;;;;;;;6.30;3.20;;;;;;;8.35;73.74;99491.73;79686;1298;3011804;-68
2023/11/07 05:39:50;;;;;;;8.40;2.90;;;;;;;8.43;73.70;99498.36;78374;1298;3026348;-67
2023/11/07 05:42:18;;;;;;;4.50;1.90;;;;;;;9.10;72.76;99492.27;79545;1297;3013076;-66
2023/11/07 05:44:44;;;;;;;4.20;1.90;;;;;;;9.61;70.22;99508.35;79631;1297;3013181;-67
2023/11/07 05:47:12;;;;;;;2.20;1.60;;;;;;;9.59;69.16;99502.13;78389;1294;3050301;-66
2023/11/07 05:49:38;;;;;;;3.90;2.00;;;;;;;9.58;68.84;99508.86;79884;1298;3013521;-67
2023/11/07 05:52:05;;;;;;;4.20;2.30;;;;;;;9.59;68.49;99514.04;79850;1293;3012786;-70
2023/11/07 05:54:33;;;;;;;4.70;2.40;;;;;;;9.41;69.24;99509.58;78515;1295;3026043;-68
2023/11/07 05:57:00;;;;;;;5.10;2.50;;;;;;;9.38;69.28;99523.75;79554;1296;3012975;-66
2023/11/07 05:59:26;;;;;;;8.30;3.30;;;;;;;9.29;69.65;99527.20;79595;1294;3011565;-68
2023/11/07 06:01:54;;;;;;;8.60;3.30;;;;;;;9.20;70.10;99531.89;78465;1297;3027656;-67
2023/11/07 06:04:30;;;;;;;4.60;2.70;;;;;;;9.14;70.49;99533.98;79730;1298;3013590;-69
2023/11/07 06:06:59;;;;;;;7.20;3.60;;;;;;;9.03;71.03;99545.21;78314;1298;3069461;-67
2023/11/07 06:09:26;;;;;;;8.70;3.00;;;;;;;9.04;71.28;99534.80;79837;1295;3014393;-65
2023/11/07 06:11:56;;;;;;;7.90;3.50;;;;;;;8.95;71.93;99536.38;79567;1294;3011604;-65
2023/11/07 06:14:24;;;;;;;9.10;2.90;;;;;;;9.01;71.70;99544.27;78375;1295;3052588;-67
2023/11/07 06:16:54;;;;;;;3.00;1.90;;;;;;;9.09;71.39;99539.63;79530;1298;3013204;-66
2023/11/07 06:19:23;;;;;;;4.60;2.40;;;;;;;9.06;71.57;99544.88;79037;1298;3013290;-68
2023/11/07 06:21:49;;;;;;;5.40;2.60;;;;;;;9.12;71.57;99536.70;79574;1295;3014931;-66
2023/11/07 06:24:16;;;;;;;8.00;2.70;;;;;;;9.22;71.51;99546.66;79510;1296;3013204;-66
2023/11/07 06:26:45;;;;;;;3.90;2.10;;;;;;;9.31;71.36;99552.65;78399;1297;3026529;-66
2023/11/07 06:29:12;;;;;;;8.50;2.50;;;;;;;9.39;71.12;99555.02;79874;1297;3012955;-66
2023/11/07 06:31:39;;;;;;;5.10;1.90;;;;;;;9.35;71.17;99553.09;79652;1295;3011672;-68
2023/11/07 06:34:06;;;;;;;8.40;1.90;;;;;;;9.47;70.98;99555.08;78619;1295;3052331;-69
2023/11/07 06:36:33;;;;;;;3.50;2.10;;;;;;;9.50;70.74;99551.94;79653;1298;3012925;-70
2023/11/07 06:39:00;;;;;;;4.90;2.70;;;;;;;9.51;70.81;99553.99;79555;1297;3011586;-65
2023/11/07 06:41:28;;;;;;;6.70;2.60;;;;;;;9.61;70.77;99556.05;78422;1298;3026684;-66
2023/11/07 06:43:55;;;;;;;5.90;2.50;;;;;;;9.72;70.27;99554.05;79855;1293;3013430;-66
2023/11/07 06:46:21;;;;;;;6.50;2.50;;;;;;;9.74;70.30;99553.23;79634;1294;3011853;-66
2023/11/07 06:48:49;;;;;;;4.80;2.50;;;;;;;9.82;70.24;99565.22;78484;1298;3052757;-68
2023/11/07 06:51:18;;;;;;;4.70;2.70;;;;;;;9.88;70.17;99564.39;79944;1295;3012680;-69
2023/11/07 06:53:45;;;;;;;3.80;2.10;;;;;;;9.88;70.17;99556.84;79820;1295;3013321;-68
2023/11/07 06:56:13;;;;;;;3.20;1.90;;;;;;;9.96;70.00;99564.29;78604;1297;3056384;-70
2023/11/07 06:58:41;;;;;;;4.90;2.30;;;;;;;9.95;70.08;99564.85;79713;1297;3015406;-67
2023/11/07 07:01:10;;;;;;;4.20;2.20;;;;;;;9.97;70.17;99569.33;79560;1295;3013224;-67
2023/11/07 07:03:38;;;;;;;4.80;2.20;;;;;;;10.07;69.96;99566.09;78451;1297;3051989;-66
2023/11/07 07:06:06;;;;;;;3.80;2.20;;;;;;;10.18;69.86;99575.30;79624;1293;3013093;-66
2023/11/07 07:08:33;;;;;;;6.60;2.60;;;;;;;10.16;69.75;99577.70;79583;1295;3011417;-66
2023/11/07 07:11:01;;;;;;;10.90;3.50;;;;;;;10.26;69.56;99585.88;78426;1294;3057274;-68
2023/11/07 07:13:27;;;;;;;7.20;3.80;;;;;;;10.33;69.60;99572.86;79636;1295;3013457;-70
2023/11/07 07:15:54;;;;;;;7.10;2.90;;;;;;;10.40;69.37;99574.75;79658;1294;3012016;-66
2023/11/07 07:18:22;;;;;;;5.00;2.50;;;;;;;10.56;69.21;99583.29;78405;1297;3026525;-67
2023/11/07 07:20:52;;;;;;;9.20;2.80;;;;;;;10.66;68.94;99573.96;79796;1295;3018948;-69
2023/11/07 07:23:24;;;;;;;7.00;3.00;;;;;;;10.72;68.58;99575.54;78497;1295;3050991;-73
2023/11/07 07:25:52;;;;;;;8.30;3.50;;;;;;;10.79;68.19;99571.92;79877;1294;3012994;-68
2023/11/07 07:28:20;;;;;;;8.70;3.00;;;;;;;10.90;67.79;99576.55;78610;1294;3048642;-68
2023/11/07 07:30:48;;;;;;;8.60;3.70;;;;;;;11.08;67.71;99581.44;79591;1298;3018748;-69
2023/11/07 07:33:19;;;;;;;9.90;3.00;;;;;;;11.22;67.48;99581.08;79646;1298;3011747;-68
2023/11/07 07:35:47;;;;;;;9.50;2.80;;;;;;;11.31;67.12;99584.42;78628;1298;3052975;-67
2023/11/07 07:38:13;;;;;;;4.90;2.50;;;;;;;11.36;66.93;99590.25;79788;1298;3012917;-68
2023/11/07 07:40:41;;;;;;;7.90;3.50;;;;;;;11.42;66.94;99598.45;79932;1294;3011499;-67
2023/11/07 07:43:09;;;;;;;5.10;2.40;;;;;;;11.50;67.01;99603.60;78565;1293;3049792;-65
2023/11/07 07:45:36;;;;;;;5.60;2.80;;;;;;;11.56;66.59;99614.61;79747;1297;3013031;-66
2023/11/07 07:48:04;;;;;;;8.00;3.10;;;;;;;11.60;66.76;99612.09;79665;1296;3011831;-66
2023/11/07 07:50:32;;;;;;;6.40;2.50;;;;;;;11.72;66.90;99617.99;78510;1298;3052691;-65
2023/11/07 07:53:02;;;;;;;8.90;3.30;;;;;;;11.80;66.94;99617.50;79809;1294;3011630;-67
2023/11/07 07:55:30;;;;;;;7.20;2.50;;;;;;;11.87;66.18;99615.64;78368;1298;3057732;-69
2023/11/07 07:57:59;;;;;;;6.00;2.30;;;;;;;12.10;66.42;99619.65;79659;1295;3013288;-69
2023/11/07 08:00:31;;;;;;;4.30;2.10;;;;;;;12.18;65.55;99617.25;79175;1294;3013573;-67
2023/11/07 08:02:58;;;;;;;6.00;2.30;;;;;;;12.35;65.00;99610.49;79761;1293;3012977;-68
2023/11/07 08:05:28;;;;;;;4.60;1.90;;;;;;;12.44;64.44;99614.85;79160;1292;3011833;-69
2023/11/07 08:07:55;;;;;;;7.70;2.00;;;;;;;12.43;64.31;99614.21;79791;1297;3014380;-69
2023/11/07 08:10:22;;;;;;;8.60;2.20;;;;;;;12.43;64.61;99620.02;79806;1292;3012915;-69
2023/11/07 08:12:50;;;;;;;9.90;3.20;;;;;;;12.41;64.83;99624.50;75593;1292;3916863;-70
2023/11/07 08:15:17;;;;;;;7.20;2.70;;;;;;;12.42;64.70;99623.37;79922;1296;3012846;-69
2023/11/07 08:17:44;;;;;;;9.70;3.20;;;;;;;12.51;64.79;99621.60;79969;1294;3012344;-69
2023/11/07 08:20:15;;;;;;;10.30;2.70;;;;;;;12.55;64.31;99623.05;78568;1296;3052369;-72
2023/11/07 08:22:48;;;;;;;4.80;1.90;;;;;;;12.52;64.61;99625.17;79807;1294;3015100;-69
2023/11/07 08:25:18;;;;;;;3.80;2.00;;;;;;;12.62;64.27;99631.02;78788;1292;3068178;-73
2023/11/07 08:27:45;;;;;;;5.00;1.90;;;;;;;12.67;63.01;99622.30;79911;1292;3011643;-73
2023/11/07 08:30:20;;;;;;;7.90;2.50;;;;;;;12.76;63.52;99625.37;79330;1292;3013668;-71
2023/11/07 08:32:46;;;;;;;5.10;1.90;;;;;;;12.84;62.99;99627.30;79856;1292;3013679;-71
2023/11/07 08:35:18;;;;;;;4.00;1.80;;;;;;;12.93;62.86;99628.59;78767;1294;3052843;-71
2023/11/07 08:37:47;;;;;;;4.10;2.30;;;;;;;12.97;62.64;99632.55;79682;1292;3013186;-71
2023/11/07 08:40:19;;;;;;;5.70;1.80;;;;;;;12.98;62.56;99634.26;78646;1297;3052187;-73
2023/11/07 08:42:48;;;;;;;3.60;2.00;;;;;;;13.02;62.69;99627.98;79906;1292;3011673;-73
2023/11/07 08:45:18;;;;;;;4.00;1.80;;;;;;;13.21;62.35;99629.70;78590;1292;3068302;-71
2023/11/07 08:47:45;;;;;;;5.90;1.70;;;;;;;13.30;62.02;99632.30;79887;1292;3013246;-67
2023/11/07 08:50:14;;;;;;;6.50;1.70;;;;;;;13.29;61.41;99644.11;79135;1292;3011604;-67
2023/11/07 08:52:41;;;;;;;5.80;1.80;;;;;;;13.22;61.30;99634.20;79812;1292;3013212;-68
2023/11/07 08:55:08;;;;;;;5.00;1.70;;;;;;;13.17;61.58;99629.30;79673;1292;3011760;-69
2023/11/07 08:57:38;;;;;;;10.90;2.00;;;;;;;13.25;61.47;99626.80;78495;1294;3052479;-69
2023/11/07 09:00:08;;;;;;;7.60;2.30;;;;;;;13.35;61.32;99626.27;79841;1296;3011371;-69
2023/11/07 09:02:38;;;;;;;5.40;2.70;;;;;;;13.55;61.29;99625.94;78565;1294;3068038;-67
2023/11/07 09:05:08;;;;;;;6.00;1.90;;;;;;;13.66;61.31;99625.89;79819;1292;3013563;-68
2023/11/07 09:07:35;;;;;;;5.20;1.90;;;;;;;13.70;60.95;99630.70;78515;1297;3049863;-70
2023/11/07 09:10:02;;;;;;;3.40;1.60;;;;;;;13.70;60.79;99626.70;79689;1296;3013041;-69
2023/11/07 09:12:29;;;;;;;5.10;1.50;;;;;;;13.67;60.85;99630.23;79685;1292;3012075;-71
2023/11/07 09:14:57;;;;;;;3.30;1.70;;;;;;;13.65;60.87;99621.41;78559;1297;3025396;-69
2023/11/07 09:17:23;;;;;;;3.10;1.80;;;;;;;13.82;60.82;99622.30;79700;1297;3013771;-69
2023/11/07 09:19:50;;;;;;;5.00;1.30;;;;;;;13.84;60.31;99627.99;79642;1294;3013507;-69
2023/11/07 09:22:17;;;;;;;4.50;1.60;;;;;;;13.85;60.65;99620.31;78378;1292;3025141;-69
2023/11/07 09:24:44;;;;;;;3.50;1.30;;;;;;;13.86;60.47;99620.07;79786;1296;3013188;-69
2023/11/07 09:27:11;;;;;;;3.10;1.10;;;;;;;13.90;60.16;99621.39;79993;1292;3011582;-68
2023/11/07 09:29:39;;;;;;;3.70;1.40;;;;;;;13.92;60.21;99615.08;78613;1295;3025909;-69
2023/11/07 09:32:06;;;;;;;2.10;1.30;;;;;;;13.96;59.89;99609.49;79934;1296;3013401;-70
2023/11/07 09:35:22;;;;;;;4.10;1.20;;;;;;;13.96;59.95;99620.75;80518;1292;3013706;-69
2023/11/07 09:37:49;;;;;;;2.10;1.30;;;;;;;14.03;60.10;99615.73;79595;1298;3013130;-68
2023/11/07 09:40:19;;;;;;;4.00;1.50;;;;;;;14.07;59.51;99615.91;79536;1296;3012843;-68
2023/11/07 09:42:48;;;;;;;2.20;1.20;;;;;;;14.12;59.72;99621.39;78569;1296;3052281;-69
2023/11/07 09:45:16;;;;;;;3.70;1.50;;;;;;;14.14;59.20;99615.06;79793;1295;3013853;-68
2023/11/07 09:47:49;;;;;;;3.70;1.50;;;;;;;14.23;59.38;99608.98;76759;1296;3570193;-71
2023/11/07 09:50:20;;;;;;;5.10;1.70;;;;;;;14.28;59.36;99613.40;79738;1292;3011551;-69
2023/11/07 09:52:49;;;;;;;4.80;1.70;;;;;;;14.39;59.10;99606.58;78666;1297;3048832;-69
2023/11/07 09:55:16;;;;;;;4.10;1.60;;;;;;;14.44;58.33;99611.62;80062;1292;3013201;-69
2023/11/07 09:57:55;;;;;;;4.10;1.50;;;;;;;14.47;58.04;99604.37;79930;1293;3011477;-67
2023/11/07 10:00:25;;;;;;;2.70;1.30;;;;;;;14.47;58.16;99614.94;78583;1293;3052580;-68
2023/11/07 10:02:52;;;;;;;3.80;1.40;;;;;;;14.34;57.95;99615.95;80369;1292;3012657;-69
2023/11/07 10:05:20;;;;;;;3.70;1.30;;;;;;;14.34;56.64;99617.99;79754;1298;3035470;-68
2023/11/07 10:07:51;;;;;;;4.70;1.40;;;;;;;14.45;57.19;99604.00;78725;1295;3048975;-69
2023/11/07 10:10:18;;;;;;;2.60;1.30;;;;;;;14.66;57.52;99604.77;79925;1292;3013598;-68
2023/11/07 10:12:47;;;;;;;2.40;1.10;;;;;;;14.77;57.07;99604.44;79383;1293;3011656;-69
2023/11/07 10:15:24;;;;;;;3.50;1.20;;;;;;;14.93;57.11;99610.80;79462;1297;3013181;-69
2023/11/07 10:17:57;;;;;;;3.10;1.50;;;;;;;14.99;57.06;99609.81;78597;1295;3068122;-68
2023/11/07 10:20:23;;;;;;;11.40;1.90;;;;;;;14.95;56.78;99606.46;79989;1292;3013257;-67
2023/11/07 10:22:51;;;;;;;1.70;0.90;;;;;;;14.80;57.01;99624.67;78782;1293;3026801;-68
2023/11/07 10:25:38;;;;;;;5.30;1.70;;;;;;;14.70;56.80;99622.57;79851;1292;3013489;-67
2023/11/07 10:28:07;;;;;;;4.20;1.20;;;;;;;14.66;56.60;99618.15;78512;1293;3049591;-66
2023/11/07 10:30:41;;;;;;;4.40;1.30;;;;;;;14.70;56.72;99632.30;79795;1291;3013083;-66
2023/11/07 10:33:09;;;;;;;4.20;1.20;;;;;;;14.71;56.67;99618.70;78750;1295;3052796;-68
2023/11/07 10:35:55;;;;;;;5.30;1.40;;;;;;;14.66;56.78;99627.45;79870;1292;3013700;-67
2023/11/07 10:38:23;;;;;;;3.20;1.20;;;;;;;14.72;56.43;99609.42;78595;1293;3055613;-67
2023/11/07 10:40:50;;;;;;;7.30;1.40;;;;;;;14.79;56.46;99606.20;79811;1292;3013340;-67
2023/11/07 10:43:39;;;;;;;3.60;1.20;;;;;;;14.89;56.09;99620.29;79767;1295;3011891;-66
2023/11/07 10:46:10;;;;;;;2.70;1.00;;;;;;;14.86;55.87;99623.50;78429;1295;3051318;-68
2023/11/07 10:48:41;;;;;;;3.50;1.40;;;;;;;14.90;55.73;99618.13;79956;1295;3011734;-65
2023/11/07 10:51:12;;;;;;;6.20;1.40;;;;;;;14.96;55.70;99618.68;78603;1292;3066924;-66
2023/11/07 10:53:41;;;;;;;5.10;1.50;;;;;;;15.04;55.56;99630.11;79932;1293;3013821;-64
2023/11/07 10:56:20;;;;;;;3.40;1.30;;;;;;;15.05;55.04;99618.04;78704;1292;3055606;-70
2023/11/07 10:58:54;;;;;;;5.20;1.90;;;;;;;14.95;55.32;99629.70;78411;1293;3048643;-66
2023/11/07 11:01:24;;;;;;;6.10;1.80;;;;;;;14.99;54.06;99621.16;79037;1292;3012959;-67
2023/11/07 11:03:50;;;;;;;8.00;1.60;;;;;;;14.92;52.05;99615.13;79486;1293;3013966;-64
2023/11/07 11:06:23;;;;;;;3.00;1.40;;;;;;;14.87;52.28;99615.52;79611;1300;3011800;-67
2023/11/07 11:08:54;;;;;;;2.70;1.90;;;;;;;14.98;52.85;99605.70;78528;1298;3051821;-65
2023/11/07 11:11:20;;;;;;;4.80;1.50;;;;;;;15.17;52.54;99615.20;80034;1295;3011528;-68
2023/11/07 11:13:47;;;;;;;2.80;1.50;;;;;;;15.18;52.73;99614.05;79799;1295;3011889;-69
2023/11/07 11:16:14;;;;;;;3.30;1.80;;;;;;;15.05;53.33;99615.55;78650;1292;3048297;-69
2023/11/07 11:19:16;;;;;;;4.90;1.80;;;;;;;15.12;53.72;99611.35;80022;1293;3012588;-70
2023/11/07 11:22:09;;;;;;;3.40;1.80;;;;;;;15.26;53.26;99630.20;78664;1295;3052757;-71
2023/11/07 11:25:02;;;;;;;7.80;2.10;;;;;;;15.19;53.43;99616.41;78589;1292;3053951;-69
2023/11/07 11:27:33;;;;;;;3.40;2.00;;;;;;;15.25;53.36;99618.22;78614;1293;3068694;-66
2023/11/07 11:29:59;;;;;;;5.50;1.50;;;;;;;15.26;53.12;99617.45;79784;1292;3013126;-64